Time;durP1;ratioP1;P1;durP2;ratioP2;P2;SDS_P1;SDS_P2;PMS_P1;PMS_P2;Temp;Humidity;BMP_temperature;BMP_pressure;BME280_temperature;BME280_humidity;BME280_pressure;Samples;Min_cycle;Max_cycle;Signal;HPM_P1;HPM_P2
2023/05/10 00:01:23;;;;;;;57.13;2.37;;;;;;;;;;5072410;28;20467;-69
2023/05/10 00:03:50;;;;;;;57.40;2.30;;;;;;;;;;5072579;28;20445;-69
2023/05/10 00:06:17;;;;;;;57.30;2.30;;;;;;;;;;5072369;28;20449;-68
2023/05/10 00:08:44;;;;;;;57.30;2.40;;;;;;;;;;5072268;28;20454;-69
2023/05/10 00:11:11;;;;;;;57.07;2.30;;;;;;;;;;5072182;28;20467;-68
2023/05/10 00:13:38;;;;;;;57.43;2.40;;;;;;;;;;5072316;28;20451;-68
2023/05/10 00:16:06;;;;;;;57.43;2.63;;;;;;;;;;5072214;28;20447;-69
2023/05/10 00:18:34;;;;;;;57.47;2.30;;;;;;;;;;5072010;28;20444;-67
2023/05/10 00:21:01;;;;;;;57.80;2.73;;;;;;;;;;5071999;28;20557;-68
2023/05/10 00:23:28;;;;;;;57.47;2.40;;;;;;;;;;5071324;28;20466;-68
2023/05/10 00:25:55;;;;;;;57.17;2.40;;;;;;;;;;5072074;28;20452;-68
2023/05/10 00:28:23;;;;;;;60.13;3.70;;;;;;;;;;5071948;28;20956;-68
2023/05/10 00:30:50;;;;;;;57.63;2.40;;;;;;;;;;5071747;28;20834;-68
2023/05/10 00:33:18;;;;;;;57.53;2.40;;;;;;;;;;5072008;28;20455;-69
2023/05/10 00:35:46;;;;;;;57.47;2.30;;;;;;;;;;5071835;28;20510;-69
2023/05/10 00:38:14;;;;;;;57.37;2.30;;;;;;;;;;5071829;28;20454;-68
2023/05/10 00:40:41;;;;;;;57.57;2.50;;;;;;;;;;5071688;28;20467;-68
2023/05/10 00:43:08;;;;;;;57.47;2.47;;;;;;;;;;5071774;28;20454;-68
2023/05/10 00:45:36;;;;;;;57.47;2.33;;;;;;;;;;5071783;28;20443;-69
2023/05/10 00:48:03;;;;;;;57.37;2.47;;;;;;;;;;5071655;28;20451;-69
2023/05/10 00:50:31;;;;;;;57.70;2.40;;;;;;;;;;5071488;28;20471;-68
2023/05/10 00:52:59;;;;;;;57.67;2.63;;;;;;;;;;5071918;28;20455;-68
2023/05/10 00:55:27;;;;;;;57.47;2.40;;;;;;;;;;5071807;28;20483;-69
2023/05/10 00:57:54;;;;;;;57.53;2.50;;;;;;;;;;5071802;28;20454;-69
2023/05/10 01:00:21;;;;;;;57.27;2.67;;;;;;;;;;5071294;28;20476;-68
2023/05/10 01:02:49;;;;;;;57.47;2.43;;;;;;;;;;5071882;28;20449;-69
2023/05/10 01:05:16;;;;;;;57.47;2.40;;;;;;;;;;5071796;28;20443;-69
2023/05/10 01:07:43;;;;;;;57.43;2.50;;;;;;;;;;5071788;28;20948;-68
2023/05/10 01:10:12;;;;;;;57.17;2.43;;;;;;;;;;5071324;28;20564;-69
2023/05/10 01:12:40;;;;;;;57.57;2.57;;;;;;;;;;5071591;28;20826;-68
2023/05/10 01:15:09;;;;;;;57.43;2.57;;;;;;;;;;5071372;28;20487;-69
2023/05/10 01:17:37;;;;;;;57.27;2.50;;;;;;;;;;5071686;28;20447;-69
2023/05/10 01:20:04;;;;;;;57.43;2.40;;;;;;;;;;5071252;28;20851;-68
2023/05/10 01:22:42;;;;;;;57.60;2.40;;;;;;;;;;5071622;28;20446;-69
2023/05/10 01:25:20;;;;;;;57.53;2.50;;;;;;;;;;5071714;28;20462;-69
2023/05/10 01:27:55;;;;;;;57.33;2.50;;;;;;;;;;5071419;28;20437;-69
2023/05/10 01:30:34;;;;;;;57.47;2.53;;;;;;;;;;5071289;28;20463;-69
2023/05/10 01:33:03;;;;;;;57.40;2.47;;;;;;;;;;5071561;28;20504;-69
2023/05/10 01:35:34;;;;;;;57.40;2.40;;;;;;;;;;5074559;28;20483;-69
2023/05/10 01:38:03;;;;;;;57.47;2.40;;;;;;;;;;5075144;28;20451;-69
2023/05/10 01:40:34;;;;;;;57.60;2.47;;;;;;;;;;5074823;28;20554;-68
2023/05/10 01:43:03;;;;;;;57.37;2.40;;;;;;;;;;5075301;28;20500;-68
2023/05/10 01:45:32;;;;;;;57.33;2.30;;;;;;;;;;5075213;28;20452;-68
2023/05/10 01:48:03;;;;;;;57.60;2.60;;;;;;;;;;5075012;28;20443;-68
2023/05/10 01:50:32;;;;;;;57.50;2.60;;;;;;;;;;5075104;28;20459;-68
2023/05/10 01:53:00;;;;;;;57.50;2.40;;;;;;;;;;5075102;28;20451;-68
2023/05/10 01:55:29;;;;;;;57.47;2.40;;;;;;;;;;5073155;28;20532;-69
2023/05/10 01:57:59;;;;;;;57.50;2.50;;;;;;;;;;5074725;28;20450;-69
2023/05/10 02:00:27;;;;;;;57.50;2.50;;;;;;;;;;5074947;28;20463;-69
2023/05/10 02:02:54;;;;;;;57.37;2.40;;;;;;;;;;5074734;28;20451;-69
2023/05/10 02:05:22;;;;;;;57.27;2.33;;;;;;;;;;5074869;28;20439;-69
2023/05/10 02:07:50;;;;;;;57.30;2.40;;;;;;;;;;5074779;28;20466;-69
2023/05/10 02:10:18;;;;;;;57.60;2.37;;;;;;;;;;5074020;28;20478;-69
2023/05/10 02:12:47;;;;;;;57.37;2.47;;;;;;;;;;5074583;28;20451;-69
2023/05/10 02:15:16;;;;;;;57.23;2.40;;;;;;;;;;5074574;28;20490;-69
2023/05/10 02:17:44;;;;;;;57.47;2.47;;;;;;;;;;5074680;28;20465;-69
2023/05/10 02:20:11;;;;;;;57.27;2.40;;;;;;;;;;5074282;28;20467;-69
2023/05/10 02:22:39;;;;;;;57.30;2.50;;;;;;;;;;5074370;28;20451;-69
2023/05/10 02:25:09;;;;;;;57.20;2.60;;;;;;;;;;5074252;28;20462;-69
2023/05/10 02:27:37;;;;;;;57.43;2.33;;;;;;;;;;5074763;28;20444;-69
2023/05/10 02:30:05;;;;;;;57.50;2.40;;;;;;;;;;5074240;28;20829;-69
2023/05/10 02:32:32;;;;;;;57.40;2.40;;;;;;;;;;5074200;28;20457;-68
2023/05/10 02:35:00;;;;;;;57.37;2.40;;;;;;;;;;5074199;28;20479;-69
2023/05/10 02:37:28;;;;;;;57.37;2.43;;;;;;;;;;5074081;28;20449;-68
2023/05/10 02:39:56;;;;;;;57.30;2.30;;;;;;;;;;5073927;28;20568;-69
2023/05/10 02:42:26;;;;;;;57.20;2.33;;;;;;;;;;5074291;28;20443;-68
2023/05/10 02:44:55;;;;;;;57.67;2.77;;;;;;;;;;5073885;28;20446;-68
2023/05/10 02:47:22;;;;;;;57.17;2.40;;;;;;;;;;5073115;28;20947;-69
2023/05/10 02:49:49;;;;;;;57.40;2.33;;;;;;;;;;5073520;28;20475;-69
2023/05/10 02:52:19;;;;;;;57.23;2.40;;;;;;;;;;5073761;28;20473;-69
2023/05/10 02:54:46;;;;;;;57.33;2.43;;;;;;;;;;5073785;28;20483;-68
2023/05/10 02:57:19;;;;;;;57.40;2.50;;;;;;;;;;5073935;28;20825;-68
2023/05/10 02:59:47;;;;;;;57.37;2.40;;;;;;;;;;5073395;28;21010;-69
2023/05/10 03:02:16;;;;;;;57.50;2.50;;;;;;;;;;5073791;28;20475;-69
2023/05/10 03:04:43;;;;;;;57.40;2.23;;;;;;;;;;5073534;28;20448;-69
2023/05/10 03:07:10;;;;;;;57.57;2.60;;;;;;;;;;5073764;28;20456;-68
2023/05/10 03:09:37;;;;;;;57.40;2.40;;;;;;;;;;5073276;28;20453;-69
2023/05/10 03:12:06;;;;;;;57.33;2.60;;;;;;;;;;5073588;28;20447;-68
2023/05/10 03:14:42;;;;;;;57.37;2.50;;;;;;;;;;5073493;28;20443;-68
2023/05/10 03:17:13;;;;;;;57.27;2.50;;;;;;;;;;5073345;28;20453;-69
2023/05/10 03:19:44;;;;;;;57.70;2.60;;;;;;;;;;5073223;28;20449;-68
2023/05/10 03:22:12;;;;;;;57.37;2.33;;;;;;;;;;5073514;28;20447;-69
2023/05/10 03:24:40;;;;;;;57.50;2.43;;;;;;;;;;5073242;28;20469;-69
2023/05/10 03:27:08;;;;;;;57.37;2.40;;;;;;;;;;5073172;28;20943;-69
2023/05/10 03:29:36;;;;;;;57.33;2.40;;;;;;;;;;5072640;28;20451;-69
2023/05/10 03:32:03;;;;;;;57.57;2.50;;;;;;;;;;5073331;28;20477;-69
2023/05/10 03:34:32;;;;;;;57.30;2.43;;;;;;;;;;5073266;28;20793;-69
2023/05/10 03:37:00;;;;;;;58.07;2.80;;;;;;;;;;5072973;28;20449;-68
2023/05/10 03:39:27;;;;;;;58.37;3.00;;;;;;;;;;5072599;28;21019;-69
2023/05/10 03:41:54;;;;;;;57.17;2.30;;;;;;;;;;5072877;28;20439;-69
2023/05/10 03:44:21;;;;;;;57.20;2.50;;;;;;;;;;5072756;28;20454;-68
2023/05/10 03:46:48;;;;;;;57.17;2.50;;;;;;;;;;5072786;28;20956;-68
2023/05/10 03:49:15;;;;;;;57.47;2.70;;;;;;;;;;5072568;28;20537;-69
2023/05/10 03:51:44;;;;;;;57.27;2.43;;;;;;;;;;5072719;28;20464;-68
2023/05/10 03:54:11;;;;;;;57.23;2.40;;;;;;;;;;5072824;28;20971;-68
2023/05/10 03:56:38;;;;;;;57.17;2.40;;;;;;;;;;5072226;28;20513;-69
2023/05/10 03:59:07;;;;;;;57.30;2.40;;;;;;;;;;5072205;28;20446;-68
2023/05/10 04:01:34;;;;;;;57.30;2.60;;;;;;;;;;5072361;28;21083;-69
2023/05/10 04:04:01;;;;;;;57.57;3.20;;;;;;;;;;5072579;28;20478;-69
2023/05/10 04:06:28;;;;;;;57.50;2.80;;;;;;;;;;5072376;28;20967;-69
2023/05/10 04:08:59;;;;;;;57.17;2.50;;;;;;;;;;5072132;28;20462;-69
2023/05/10 04:11:27;;;;;;;57.50;2.50;;;;;;;;;;5072179;28;20486;-69
2023/05/10 04:13:54;;;;;;;57.50;2.50;;;;;;;;;;5072447;28;20494;-68
2023/05/10 04:16:21;;;;;;;57.83;3.00;;;;;;;;;;5072242;28;20485;-69
2023/05/10 04:18:48;;;;;;;57.27;2.40;;;;;;;;;;5072042;28;20549;-69
2023/05/10 04:21:15;;;;;;;57.37;2.43;;;;;;;;;;5072192;28;20468;-69
2023/05/10 04:23:43;;;;;;;57.13;2.40;;;;;;;;;;5072083;28;20944;-69
2023/05/10 04:26:11;;;;;;;57.17;2.40;;;;;;;;;;5071976;28;20455;-69
2023/05/10 04:28:38;;;;;;;57.20;2.30;;;;;;;;;;5071987;28;20538;-69
2023/05/10 04:31:06;;;;;;;57.13;2.40;;;;;;;;;;5071972;28;20471;-69
2023/05/10 04:33:33;;;;;;;57.13;2.30;;;;;;;;;;5072089;28;20449;-69
2023/05/10 04:36:01;;;;;;;56.97;2.30;;;;;;;;;;5072009;28;20515;-68
2023/05/10 04:38:28;;;;;;;57.13;2.30;;;;;;;;;;5071737;28;20451;-68
2023/05/10 04:40:55;;;;;;;57.40;3.00;;;;;;;;;;5071890;28;20813;-69
2023/05/10 04:43:23;;;;;;;57.17;2.40;;;;;;;;;;5072104;28;20448;-68
2023/05/10 04:45:51;;;;;;;57.30;2.40;;;;;;;;;;5071841;28;20443;-68
2023/05/10 04:48:18;;;;;;;57.07;2.43;;;;;;;;;;5072187;28;20940;-69
2023/05/10 04:50:45;;;;;;;57.30;2.30;;;;;;;;;;5071592;28;20850;-69
2023/05/10 04:53:12;;;;;;;57.27;2.37;;;;;;;;;;5072100;28;20443;-69
2023/05/10 04:55:39;;;;;;;57.17;2.47;;;;;;;;;;5071664;28;20483;-69
2023/05/10 04:58:07;;;;;;;57.47;2.50;;;;;;;;;;5072056;28;20465;-68
2023/05/10 05:00:36;;;;;;;57.30;2.30;;;;;;;;;;5071516;28;20497;-69
2023/05/10 05:03:03;;;;;;;57.17;2.27;;;;;;;;;;5071843;28;20451;-69
2023/05/10 05:05:30;;;;;;;57.00;2.30;;;;;;;;;;5071673;28;20466;-69
2023/05/10 05:07:57;;;;;;;57.17;2.10;;;;;;;;;;5071771;28;20443;-68
2023/05/10 05:10:24;;;;;;;57.10;2.50;;;;;;;;;;5074644;28;20810;-69
2023/05/10 05:12:51;;;;;;;57.37;2.23;;;;;;;;;;5075977;28;20512;-69
2023/05/10 05:15:18;;;;;;;57.20;2.20;;;;;;;;;;5075767;28;20450;-69
2023/05/10 05:17:47;;;;;;;57.13;2.20;;;;;;;;;;5075723;28;20965;-69
2023/05/10 05:20:14;;;;;;;57.13;2.27;;;;;;;;;;5075151;28;20471;-69
2023/05/10 05:22:41;;;;;;;57.13;2.37;;;;;;;;;;5076020;28;20525;-69
2023/05/10 05:25:08;;;;;;;57.10;2.20;;;;;;;;;;5075614;28;20461;-69
2023/05/10 05:27:35;;;;;;;57.07;2.30;;;;;;;;;;5075549;28;20451;-69
2023/05/10 05:30:03;;;;;;;56.97;2.23;;;;;;;;;;5075607;28;20459;-69
2023/05/10 05:32:30;;;;;;;56.97;2.23;;;;;;;;;;5075341;28;20443;-69
2023/05/10 05:34:58;;;;;;;57.07;2.30;;;;;;;;;;5075302;28;20966;-69
2023/05/10 05:37:26;;;;;;;57.10;2.30;;;;;;;;;;5075398;28;20982;-68
2023/05/10 05:39:54;;;;;;;57.47;2.80;;;;;;;;;;5074930;28;20825;-69
2023/05/10 05:42:21;;;;;;;57.03;2.40;;;;;;;;;;5075198;28;20451;-69
2023/05/10 05:44:48;;;;;;;57.07;2.13;;;;;;;;;;5075054;28;20967;-69
2023/05/10 05:47:15;;;;;;;57.30;2.57;;;;;;;;;;5074946;28;20450;-69
2023/05/10 05:49:45;;;;;;;57.00;2.43;;;;;;;;;;5074861;28;20452;-69
2023/05/10 05:52:13;;;;;;;56.97;2.50;;;;;;;;;;5074909;28;20497;-69
2023/05/10 05:54:41;;;;;;;57.00;2.30;;;;;;;;;;5075040;28;20450;-69
2023/05/10 05:57:08;;;;;;;56.87;2.20;;;;;;;;;;5074828;28;20487;-68
2023/05/10 05:59:36;;;;;;;56.67;2.07;;;;;;;;;;5074359;28;20504;-69
2023/05/10 06:02:03;;;;;;;57.00;2.20;;;;;;;;;;5075097;28;20522;-69
2023/05/10 06:04:30;;;;;;;56.97;2.30;;;;;;;;;;5074900;28;20439;-69
2023/05/10 06:06:57;;;;;;;57.07;2.30;;;;;;;;;;5074876;28;20815;-69
2023/05/10 06:09:25;;;;;;;57.07;2.43;;;;;;;;;;5074369;28;20444;-69
2023/05/10 06:11:52;;;;;;;56.90;2.17;;;;;;;;;;5074609;28;20493;-69
2023/05/10 06:14:21;;;;;;;56.87;2.20;;;;;;;;;;5074467;28;20449;-69
2023/05/10 06:16:48;;;;;;;57.17;2.70;;;;;;;;;;5074583;28;20486;-69
2023/05/10 06:19:15;;;;;;;57.00;2.20;;;;;;;;;;5074313;28;20443;-69
2023/05/10 06:21:43;;;;;;;56.97;2.30;;;;;;;;;;5074374;28;20475;-68
2023/05/10 06:24:10;;;;;;;56.77;2.40;;;;;;;;;;5074289;28;20462;-69
2023/05/10 06:26:38;;;;;;;56.73;2.20;;;;;;;;;;5074364;28;20452;-69
2023/05/10 06:29:05;;;;;;;57.07;2.20;;;;;;;;;;5073919;28;20854;-69
2023/05/10 06:31:33;;;;;;;57.00;2.20;;;;;;;;;;5074362;28;20999;-69
2023/05/10 06:34:01;;;;;;;56.77;2.20;;;;;;;;;;5074380;28;20458;-68
2023/05/10 06:36:28;;;;;;;56.73;2.20;;;;;;;;;;5074008;28;20479;-68
2023/05/10 06:38:55;;;;;;;56.97;2.60;;;;;;;;;;5073788;28;20448;-69
2023/05/10 06:41:22;;;;;;;56.77;2.30;;;;;;;;;;5073883;28;20984;-69
2023/05/10 06:43:50;;;;;;;56.77;2.20;;;;;;;;;;5074282;28;20453;-69
2023/05/10 06:46:17;;;;;;;57.17;2.10;;;;;;;;;;5073949;28;20522;-68
2023/05/10 06:48:45;;;;;;;56.80;2.27;;;;;;;;;;5073737;28;20813;-69
2023/05/10 06:51:12;;;;;;;56.73;2.10;;;;;;;;;;5073904;28;20471;-69
2023/05/10 06:53:39;;;;;;;57.00;2.13;;;;;;;;;;5073758;28;20808;-68
2023/05/10 06:56:06;;;;;;;56.73;2.20;;;;;;;;;;5073980;28;20483;-69
2023/05/10 06:58:33;;;;;;;57.17;2.20;;;;;;;;;;5073685;28;20800;-68
2023/05/10 07:01:04;;;;;;;56.80;2.00;;;;;;;;;;5073843;28;20467;-69
2023/05/10 07:03:32;;;;;;;57.17;2.60;;;;;;;;;;5073769;28;20447;-68
2023/05/10 07:06:04;;;;;;;56.87;2.30;;;;;;;;;;5073742;28;20453;-69
2023/05/10 07:08:31;;;;;;;56.77;2.20;;;;;;;;;;5073231;28;20452;-68
2023/05/10 07:11:01;;;;;;;56.87;2.20;;;;;;;;;;5073576;28;20504;-69
2023/05/10 07:13:28;;;;;;;56.90;2.20;;;;;;;;;;5073781;28;20447;-68
2023/05/10 07:15:55;;;;;;;56.77;2.30;;;;;;;;;;5073361;28;20955;-68
2023/05/10 07:18:23;;;;;;;56.67;2.10;;;;;;;;;;5073339;28;20447;-69
2023/05/10 07:20:51;;;;;;;56.87;2.00;;;;;;;;;;5072934;28;20470;-69
2023/05/10 07:23:18;;;;;;;57.20;2.27;;;;;;;;;;5073450;28;20816;-69
2023/05/10 07:25:46;;;;;;;56.90;2.00;;;;;;;;;;5073211;28;20815;-69
2023/05/10 07:28:13;;;;;;;57.07;2.10;;;;;;;;;;5073389;28;20452;-68
2023/05/10 07:30:40;;;;;;;56.70;2.10;;;;;;;;;;5072874;28;20473;-69
2023/05/10 07:33:08;;;;;;;56.90;2.30;;;;;;;;;;5072509;28;20457;-69
2023/05/10 07:35:36;;;;;;;56.77;2.20;;;;;;;;;;5072949;28;20874;-68
2023/05/10 07:38:03;;;;;;;56.70;2.00;;;;;;;;;;5072817;28;20483;-69
2023/05/10 07:40:31;;;;;;;56.80;2.10;;;;;;;;;;5072784;28;20467;-69
2023/05/10 07:42:58;;;;;;;57.07;2.20;;;;;;;;;;5072813;28;20936;-69
2023/05/10 07:45:25;;;;;;;61.63;2.83;;;;;;;;;;5069266;28;20442;-69
2023/05/10 07:47:52;;;;;;;57.00;2.20;;;;;;;;;;5072570;28;20288;-69
2023/05/10 07:50:20;;;;;;;56.90;2.13;;;;;;;;;;5072349;28;20463;-69
2023/05/10 07:52:49;;;;;;;56.97;2.30;;;;;;;;;;5072801;28;20477;-69
2023/05/10 07:55:16;;;;;;;56.73;2.57;;;;;;;;;;5072739;28;20447;-69
2023/05/10 07:57:43;;;;;;;57.10;1.90;;;;;;;;;;5072942;28;20486;-69
2023/05/10 08:00:13;;;;;;;56.73;2.10;;;;;;;;;;5072248;28;20496;-69
2023/05/10 08:02:40;;;;;;;56.87;2.00;;;;;;;;;;5072430;28;20459;-69
2023/05/10 08:05:08;;;;;;;56.77;2.07;;;;;;;;;;5072597;28;20455;-69
2023/05/10 08:07:35;;;;;;;56.87;2.10;;;;;;;;;;5070065;28;20453;-68
2023/05/10 08:10:03;;;;;;;56.90;2.00;;;;;;;;;;5071988;28;20471;-69
2023/05/10 08:12:31;;;;;;;56.80;2.00;;;;;;;;;;5070612;28;20448;-69
2023/05/10 08:14:58;;;;;;;56.83;2.00;;;;;;;;;;5072002;28;20447;-69
2023/05/10 08:17:25;;;;;;;56.77;2.10;;;;;;;;;;5071918;28;20828;-69
2023/05/10 08:19:52;;;;;;;56.70;1.93;;;;;;;;;;5071708;28;20482;-69
2023/05/10 08:22:19;;;;;;;56.90;2.40;;;;;;;;;;5071859;28;20452;-69
2023/05/10 08:24:46;;;;;;;56.90;2.20;;;;;;;;;;5072141;28;20465;-69
2023/05/10 08:27:15;;;;;;;56.80;2.03;;;;;;;;;;5071833;28;20447;-69
2023/05/10 08:29:42;;;;;;;57.13;2.30;;;;;;;;;;5071249;28;20450;-69
2023/05/10 08:32:09;;;;;;;56.60;2.00;;;;;;;;;;5071912;28;20443;-69
2023/05/10 08:34:36;;;;;;;56.73;2.00;;;;;;;;;;5071881;28;20497;-69
2023/05/10 08:37:03;;;;;;;56.73;2.50;;;;;;;;;;5071742;28;20495;-69
2023/05/10 08:39:31;;;;;;;56.77;2.00;;;;;;;;;;5071360;28;20822;-68
2023/05/10 08:42:03;;;;;;;56.67;1.90;;;;;;;;;;5071566;28;20555;-68
2023/05/10 08:44:32;;;;;;;56.97;2.00;;;;;;;;;;5066428;28;20947;-69
2023/05/10 08:47:01;;;;;;;56.73;2.10;;;;;;;;;;5051519;28;20448;-69
2023/05/10 08:49:29;;;;;;;57.07;2.33;;;;;;;;;;5051248;28;20440;-69
2023/05/10 08:51:57;;;;;;;56.77;1.80;;;;;;;;;;5051580;28;20448;-69
2023/05/10 08:54:24;;;;;;;56.87;1.90;;;;;;;;;;5051548;28;20455;-69
2023/05/10 08:56:53;;;;;;;56.50;1.97;;;;;;;;;;5051191;28;20480;-69
2023/05/10 08:59:20;;;;;;;56.97;2.10;;;;;;;;;;5051256;28;20484;-69
2023/05/10 09:01:49;;;;;;;56.73;1.90;;;;;;;;;;5051534;28;20468;-69
2023/05/10 09:04:16;;;;;;;56.67;2.00;;;;;;;;;;5051765;28;20494;-69
2023/05/10 09:06:43;;;;;;;57.10;2.10;;;;;;;;;;5051374;28;20455;-69
2023/05/10 09:09:10;;;;;;;56.77;1.90;;;;;;;;;;5051366;28;20448;-69
2023/05/10 09:11:38;;;;;;;57.00;1.90;;;;;;;;;;5051485;28;20559;-69
2023/05/10 09:14:05;;;;;;;56.80;2.30;;;;;;;;;;5051468;28;20448;-69
2023/05/10 09:16:32;;;;;;;56.90;2.10;;;;;;;;;;5054828;28;20553;-69
2023/05/10 09:19:01;;;;;;;57.87;2.30;;;;;;;;;;5071080;28;20453;-69
2023/05/10 09:21:28;;;;;;;56.73;2.03;;;;;;;;;;5071296;28;20470;-69
2023/05/10 09:23:55;;;;;;;56.77;2.00;;;;;;;;;;5070995;28;20815;-69
2023/05/10 09:26:23;;;;;;;57.10;2.10;;;;;;;;;;5071470;28;20451;-69
2023/05/10 09:28:55;;;;;;;56.80;2.10;;;;;;;;;;5071070;28;20443;-69
2023/05/10 09:31:22;;;;;;;57.00;2.10;;;;;;;;;;5071069;28;20480;-69
2023/05/10 09:33:50;;;;;;;56.97;2.13;;;;;;;;;;5071186;28;20455;-70
2023/05/10 09:36:19;;;;;;;56.73;2.13;;;;;;;;;;5070945;28;21040;-69
2023/05/10 09:38:49;;;;;;;57.07;2.00;;;;;;;;;;5070668;28;21045;-69
2023/05/10 09:41:20;;;;;;;57.10;2.03;;;;;;;;;;5070998;28;20471;-68
2023/05/10 09:43:47;;;;;;;57.07;2.00;;;;;;;;;;5071186;28;20463;-69
2023/05/10 09:46:14;;;;;;;56.83;2.00;;;;;;;;;;5071113;28;20461;-69
2023/05/10 09:48:43;;;;;;;56.77;2.03;;;;;;;;;;5058207;28;20445;-69
2023/05/10 09:51:10;;;;;;;57.00;2.13;;;;;;;;;;5051147;28;20555;-69
2023/05/10 09:53:39;;;;;;;56.97;2.00;;;;;;;;;;5051318;28;20448;-69
2023/05/10 09:56:06;;;;;;;56.80;2.10;;;;;;;;;;5053439;28;20454;-69
2023/05/10 09:58:37;;;;;;;56.57;1.83;;;;;;;;;;5054361;28;20483;-69
2023/05/10 10:01:05;;;;;;;56.77;2.00;;;;;;;;;;5054517;28;20472;-69
2023/05/10 10:03:32;;;;;;;56.53;1.90;;;;;;;;;;5054379;28;20452;-69
2023/05/10 10:05:59;;;;;;;56.87;2.00;;;;;;;;;;5054726;28;20458;-69
2023/05/10 10:08:26;;;;;;;57.00;1.90;;;;;;;;;;5054451;28;20478;-69
2023/05/10 10:10:55;;;;;;;56.87;2.10;;;;;;;;;;5054104;28;21015;-69
2023/05/10 10:13:22;;;;;;;56.87;2.10;;;;;;;;;;5054227;28;20452;-69
2023/05/10 10:15:50;;;;;;;56.67;2.00;;;;;;;;;;5054189;28;20448;-69
2023/05/10 10:18:18;;;;;;;56.93;2.30;;;;;;;;;;5053838;28;20576;-69
2023/05/10 10:20:45;;;;;;;56.73;2.10;;;;;;;;;;5069016;28;20485;-69
2023/05/10 10:23:12;;;;;;;56.67;2.20;;;;;;;;;;5074168;28;20443;-69
2023/05/10 10:25:40;;;;;;;56.93;2.10;;;;;;;;;;5074133;28;20499;-69
2023/05/10 10:28:21;;;;;;;56.80;2.00;;;;;;;;;;5074490;28;20443;-69
2023/05/10 10:30:52;;;;;;;56.80;2.33;;;;;;;;;;5073995;28;20525;-69
2023/05/10 10:33:49;;;;;;;57.03;2.00;;;;;;;;;;5073982;28;20443;-70
2023/05/10 10:36:17;;;;;;;56.77;2.00;;;;;;;;;;5011990;28;20448;-69
2023/05/10 10:38:59;;;;;;;57.77;4.10;;;;;;;;;;5059375;28;20491;-69
2023/05/10 10:41:30;;;;;;;56.80;2.00;;;;;;;;;;5074038;28;20467;-69
2023/05/10 10:44:12;;;;;;;56.77;2.00;;;;;;;;;;5073941;28;20455;-69
2023/05/10 10:47:00;;;;;;;57.00;2.00;;;;;;;;;;5073527;28;20827;-69
2023/05/10 10:49:27;;;;;;;57.00;2.10;;;;;;;;;;5073095;28;20573;-69
2023/05/10 10:52:13;;;;;;;56.90;2.00;;;;;;;;;;5056303;28;20471;-69
2023/05/10 10:54:41;;;;;;;56.87;1.93;;;;;;;;;;5053722;28;20467;-69
2023/05/10 10:57:12;;;;;;;56.77;1.97;;;;;;;;;;5053444;28;20453;-69
2023/05/10 10:59:43;;;;;;;56.47;2.00;;;;;;;;;;5052933;28;20518;-69
2023/05/10 11:02:12;;;;;;;56.77;2.00;;;;;;;;;;5053716;28;20498;-69
2023/05/10 11:04:46;;;;;;;56.97;2.10;;;;;;;;;;5053596;28;20454;-70
2023/05/10 11:07:20;;;;;;;56.97;2.00;;;;;;;;;;5052575;28;20452;-69
2023/05/10 11:09:48;;;;;;;56.63;2.00;;;;;;;;;;5052965;28;20453;-69
2023/05/10 11:12:15;;;;;;;57.10;2.00;;;;;;;;;;5053149;28;20505;-69
2023/05/10 11:14:42;;;;;;;56.80;2.10;;;;;;;;;;5053475;28;20454;-69
2023/05/10 11:17:26;;;;;;;57.07;1.90;;;;;;;;;;5053238;28;20458;-69
2023/05/10 11:20:09;;;;;;;56.77;2.23;;;;;;;;;;5052716;28;20490;-69
2023/05/10 11:22:51;;;;;;;56.70;1.90;;;;;;;;;;5051888;28;20448;-69
2023/05/10 11:25:18;;;;;;;56.63;1.90;;;;;;;;;;5053108;28;20513;-69
2023/05/10 11:27:45;;;;;;;56.87;2.10;;;;;;;;;;5053067;28;20963;-69
2023/05/10 11:30:13;;;;;;;56.87;1.70;;;;;;;;;;5052892;28;20471;-69
2023/05/10 11:32:42;;;;;;;56.83;1.80;;;;;;;;;;5053058;28;20534;-70
2023/05/10 11:35:09;;;;;;;56.90;2.07;;;;;;;;;;5052997;28;20450;-69
2023/05/10 11:37:37;;;;;;;57.17;2.00;;;;;;;;;;5053106;28;20494;-69
2023/05/10 11:40:05;;;;;;;56.90;2.00;;;;;;;;;;5052719;28;20487;-69
2023/05/10 11:42:33;;;;;;;56.87;2.00;;;;;;;;;;5053038;28;20450;-69
2023/05/10 11:45:01;;;;;;;56.90;2.10;;;;;;;;;;5052954;28;20452;-69
2023/05/10 11:47:29;;;;;;;56.87;2.00;;;;;;;;;;5052722;28;20454;-69
2023/05/10 11:49:58;;;;;;;56.97;2.00;;;;;;;;;;5052825;28;20503;-69
2023/05/10 11:52:25;;;;;;;56.67;1.90;;;;;;;;;;5052990;28;20535;-69
2023/05/10 11:54:53;;;;;;;56.87;1.93;;;;;;;;;;5053173;28;20444;-69
2023/05/10 11:57:20;;;;;;;56.80;1.80;;;;;;;;;;5052799;28;20452;-69
2023/05/10 11:59:47;;;;;;;57.00;1.90;;;;;;;;;;5052104;28;20975;-69
2023/05/10 12:02:15;;;;;;;56.83;2.00;;;;;;;;;;5052403;28;20452;-69
2023/05/10 12:04:42;;;;;;;56.70;1.80;;;;;;;;;;5052804;28;20451;-69
2023/05/10 12:07:10;;;;;;;56.87;2.00;;;;;;;;;;5052806;28;20464;-69
2023/05/10 12:09:37;;;;;;;56.90;2.10;;;;;;;;;;5052021;28;20451;-69
2023/05/10 12:12:05;;;;;;;56.77;2.23;;;;;;;;;;5052878;28;20452;-69
2023/05/10 12:14:35;;;;;;;56.87;2.00;;;;;;;;;;5052707;28;20965;-69
2023/05/10 12:17:02;;;;;;;56.97;2.00;;;;;;;;;;5052398;28;20835;-69
2023/05/10 12:19:29;;;;;;;56.67;1.80;;;;;;;;;;5051997;28;20491;-69
2023/05/10 12:21:56;;;;;;;56.77;2.23;;;;;;;;;;5052094;28;20459;-69
2023/05/10 12:24:25;;;;;;;56.73;1.87;;;;;;;;;;5052141;28;20479;-69
2023/05/10 12:26:53;;;;;;;56.83;2.00;;;;;;;;;;5052099;28;20444;-69
2023/05/10 12:29:20;;;;;;;56.97;2.10;;;;;;;;;;5051658;28;20467;-69
2023/05/10 12:31:51;;;;;;;56.80;1.87;;;;;;;;;;5052187;28;20476;-69
2023/05/10 12:34:24;;;;;;;56.70;1.90;;;;;;;;;;5052416;28;20456;-69
2023/05/10 12:36:51;;;;;;;56.73;2.07;;;;;;;;;;5052182;28;20444;-67
2023/05/10 12:39:19;;;;;;;57.10;2.20;;;;;;;;;;5051572;28;20840;-68
2023/05/10 12:41:47;;;;;;;56.97;2.03;;;;;;;;;;5051773;28;20901;-67
2023/05/10 12:44:14;;;;;;;56.77;2.10;;;;;;;;;;5052075;28;20449;-70
2023/05/10 12:46:41;;;;;;;56.83;2.10;;;;;;;;;;5052112;28;20459;-70
2023/05/10 12:49:08;;;;;;;56.77;1.90;;;;;;;;;;5051498;28;20460;-69
2023/05/10 12:51:36;;;;;;;56.70;2.00;;;;;;;;;;5052169;28;20490;-69
2023/05/10 12:54:03;;;;;;;56.67;1.90;;;;;;;;;;5051759;28;20902;-70
2023/05/10 12:56:30;;;;;;;56.63;1.90;;;;;;;;;;5051662;28;20456;-70
2023/05/10 12:58:59;;;;;;;56.97;2.20;;;;;;;;;;5051692;28;20484;-70
2023/05/10 13:01:26;;;;;;;56.87;1.90;;;;;;;;;;5051554;28;21010;-70
2023/05/10 13:03:53;;;;;;;56.67;1.97;;;;;;;;;;5051767;28;20455;-70
2023/05/10 13:06:20;;;;;;;56.80;1.90;;;;;;;;;;5051646;28;20448;-70
2023/05/10 13:08:47;;;;;;;56.77;2.23;;;;;;;;;;5051246;28;20878;-70
2023/05/10 13:11:16;;;;;;;56.80;1.90;;;;;;;;;;5051768;28;20470;-70
2023/05/10 13:13:43;;;;;;;56.47;1.87;;;;;;;;;;5051654;28;20506;-70
2023/05/10 13:16:11;;;;;;;56.67;1.90;;;;;;;;;;5051692;28;20448;-70
2023/05/10 13:18:39;;;;;;;56.33;1.83;;;;;;;;;;5051234;28;20829;-70
2023/05/10 13:21:07;;;;;;;56.47;1.80;;;;;;;;;;5051485;28;20475;-70
2023/05/10 13:23:34;;;;;;;56.77;1.90;;;;;;;;;;5051401;28;20535;-70
2023/05/10 13:26:01;;;;;;;56.70;1.90;;;;;;;;;;5051369;28;20456;-70
2023/05/10 13:28:29;;;;;;;56.67;1.80;;;;;;;;;;5051421;28;20472;-69
2023/05/10 13:30:56;;;;;;;56.97;2.10;;;;;;;;;;5053524;28;20531;-70
2023/05/10 13:33:24;;;;;;;56.97;1.93;;;;;;;;;;5055844;28;20448;-70
2023/05/10 13:35:52;;;;;;;56.67;1.90;;;;;;;;;;5055274;28;20450;-70
2023/05/10 13:38:19;;;;;;;56.87;1.90;;;;;;;;;;5055120;28;20480;-70
2023/05/10 13:40:46;;;;;;;56.97;2.17;;;;;;;;;;5055140;28;20513;-70
2023/05/10 13:43:13;;;;;;;56.77;2.17;;;;;;;;;;5055217;28;20936;-70
2023/05/10 13:45:40;;;;;;;56.87;1.90;;;;;;;;;;5055113;28;20444;-70
2023/05/10 13:48:07;;;;;;;56.90;1.90;;;;;;;;;;5055082;28;20444;-70
2023/05/10 13:50:36;;;;;;;56.57;1.90;;;;;;;;;;5054618;28;20490;-70
2023/05/10 13:53:03;;;;;;;56.67;2.10;;;;;;;;;;5055210;28;20832;-70
2023/05/10 13:55:30;;;;;;;56.97;2.33;;;;;;;;;;5055109;28;20547;-70
2023/05/10 13:57:57;;;;;;;56.77;1.80;;;;;;;;;;5054707;28;20452;-70
2023/05/10 14:00:25;;;;;;;56.73;2.13;;;;;;;;;;5054572;28;20645;-70
2023/05/10 14:02:52;;;;;;;57.30;2.63;;;;;;;;;;5054820;28;20452;-70
2023/05/10 14:05:19;;;;;;;56.57;1.80;;;;;;;;;;5054769;28;20448;-70
2023/05/10 14:07:47;;;;;;;56.83;2.20;;;;;;;;;;5054914;28;20869;-70
2023/05/10 14:10:14;;;;;;;56.67;1.70;;;;;;;;;;5054443;28;20821;-70
2023/05/10 14:12:41;;;;;;;56.60;1.90;;;;;;;;;;5054555;28;20478;-70
2023/05/10 14:15:11;;;;;;;56.63;2.03;;;;;;;;;;5054631;28;20474;-70
2023/05/10 14:17:38;;;;;;;56.57;1.90;;;;;;;;;;5054391;28;20456;-70
2023/05/10 14:20:05;;;;;;;56.27;2.10;;;;;;;;;;5053962;28;20498;-70
2023/05/10 14:22:32;;;;;;;56.80;2.00;;;;;;;;;;5054414;28;20836;-70
2023/05/10 14:25:01;;;;;;;56.50;1.90;;;;;;;;;;5054422;28;20464;-70
2023/05/10 14:27:28;;;;;;;56.57;1.70;;;;;;;;;;5054354;28;20895;-70
2023/05/10 14:29:55;;;;;;;56.60;1.80;;;;;;;;;;5053944;28;20466;-70
2023/05/10 14:32:23;;;;;;;56.90;2.00;;;;;;;;;;5054203;28;20460;-70
2023/05/10 14:34:50;;;;;;;56.47;2.10;;;;;;;;;;5054411;28;20463;-70
2023/05/10 14:37:17;;;;;;;56.77;1.90;;;;;;;;;;5054446;28;20819;-70